createdAt,value
2019-05-18T00:00:52.907Z,75.10
2019-05-18T00:03:25.772Z,74.27
2019-05-18T00:05:58.677Z,68.92
2019-05-18T00:08:31.476Z,64.72
2019-05-18T00:11:04.504Z,80.75
2019-05-18T00:13:37.315Z,70.20
2019-05-18T00:16:10.122Z,58.65
2019-05-18T00:18:42.940Z,63.58
2019-05-18T00:21:15.887Z,74.42
2019-05-18T00:23:48.755Z,69.22
2019-05-18T00:26:21.701Z,67.50
2019-05-18T00:28:54.845Z,74.75
2019-05-18T00:31:27.730Z,80.07
2019-05-18T00:34:00.592Z,72.47
2019-05-18T00:36:33.511Z,57.53
2019-05-18T00:39:07.692Z,53.08
2019-05-18T00:41:40.527Z,73.45
2019-05-18T00:44:13.332Z,72.92
2019-05-18T00:46:46.267Z,65.83
2019-05-18T00:49:19.159Z,69.35
2019-05-18T00:51:52.071Z,89.72
2019-05-18T00:54:24.925Z,86.67
2019-05-18T00:56:57.775Z,65.65
2019-05-18T00:59:30.653Z,60.28
2019-05-18T01:02:03.458Z,74.90
2019-05-18T01:04:36.390Z,79.70
2019-05-18T01:07:09.253Z,77.97
2019-05-18T01:09:42.250Z,78.10
2019-05-18T01:12:15.226Z,75.87
2019-05-18T01:14:49.223Z,59.25
2019-05-18T01:17:23.531Z,64.10
2019-05-18T01:19:56.732Z,66.85
2019-05-18T01:22:31.182Z,84.83
2019-05-18T01:25:04.330Z,75.75
2019-05-18T01:27:38.346Z,81.40
2019-05-18T01:30:11.695Z,78.37
2019-05-18T01:32:44.612Z,79.80
2019-05-18T01:35:17.929Z,56.45
2019-05-18T01:37:50.755Z,69.65
2019-05-18T01:40:23.650Z,73.60
2019-05-18T01:42:56.538Z,78.22
2019-05-18T01:45:30.336Z,72.90
2019-05-18T01:48:13.357Z,75.10
2019-05-18T01:50:37.663Z,73.30
2019-05-18T01:53:11.509Z,70.55
2019-05-18T01:55:44.380Z,64.90
2019-05-18T01:58:17.462Z,68.97
2019-05-18T02:00:51.331Z,64.10
2019-05-18T02:03:25.963Z,61.20
2019-05-18T02:05:58.722Z,68.72
2019-05-18T02:08:31.550Z,63.33
2019-05-18T02:11:04.418Z,54.15
2019-05-18T02:13:37.382Z,60.78
2019-05-18T02:16:10.161Z,65.92
2019-05-18T02:18:42.954Z,64.50
2019-05-18T02:21:15.789Z,74.17
2019-05-18T02:23:48.769Z,76.57
2019-05-18T02:26:21.609Z,71.85
2019-05-18T02:28:54.516Z,72.53
2019-05-18T02:31:27.332Z,55.88
2019-05-18T02:34:00.133Z,60.60
2019-05-18T02:36:33.086Z,69.95
2019-05-18T02:39:07.725Z,69.80
2019-05-18T02:41:40.505Z,71.82
2019-05-18T02:44:13.320Z,68.95
2019-05-18T02:46:46.137Z,68.20
2019-05-18T02:49:19.036Z,57.35
2019-05-18T02:51:51.835Z,47.08
2019-05-18T02:54:24.657Z,66.40
2019-05-18T02:56:57.536Z,66.45
2019-05-18T02:59:30.341Z,79.32
2019-05-18T03:02:03.125Z,81.37
2019-05-18T03:04:36.663Z,79.12
2019-05-18T03:07:09.465Z,68.00
2019-05-18T03:09:42.391Z,51.85
2019-05-18T03:12:15.221Z,57.48
2019-05-18T03:14:48.182Z,58.42
2019-05-18T03:17:21.001Z,61.28
2019-05-18T03:19:54.095Z,68.70
2019-05-18T03:22:26.995Z,63.98
2019-05-18T03:24:59.882Z,72.60
2019-05-18T03:27:32.831Z,59.60
2019-05-18T03:30:05.833Z,50.20
2019-05-18T03:32:38.740Z,61.25
2019-05-18T03:35:12.255Z,61.48
2019-05-18T03:37:45.076Z,61.73
2019-05-18T03:40:18.111Z,64.37
2019-05-18T03:42:50.929Z,64.82
2019-05-18T03:45:23.734Z,67.70
2019-05-18T03:47:56.659Z,51.63
2019-05-18T03:50:29.569Z,54.55
2019-05-18T03:53:02.456Z,65.12
2019-05-18T03:55:36.454Z,63.92
2019-05-18T03:58:09.252Z,71.12
2019-05-18T04:00:42.301Z,79.87
2019-05-18T04:03:15.197Z,80.80
2019-05-18T04:05:48.080Z,55.85
2019-05-18T04:08:21.014Z,51.75
2019-05-18T04:10:54.734Z,61.95
2019-05-18T04:13:27.724Z,64.40
2019-05-18T04:16:00.719Z,65.92
2019-05-18T04:18:33.717Z,69.30
2019-05-18T04:21:09.980Z,62.33
2019-05-18T04:23:42.951Z,47.33
2019-05-18T04:26:15.922Z,48.25
2019-05-18T04:28:48.969Z,53.75
2019-05-18T04:31:21.978Z,57.43
2019-05-18T04:33:54.787Z,56.00
2019-05-18T04:36:27.779Z,57.08
2019-05-18T04:39:00.705Z,59.30
2019-05-18T04:41:33.765Z,46.13
2019-05-18T04:44:10.312Z,48.95
2019-05-18T04:46:43.297Z,54.70
2019-05-18T04:49:25.960Z,51.00
2019-05-18T04:51:59.974Z,53.98
2019-05-18T04:54:35.611Z,61.55
2019-05-18T04:57:08.987Z,57.43
2019-05-18T04:59:42.857Z,54.80
2019-05-18T05:02:15.709Z,51.55
2019-05-18T05:04:52.652Z,52.48
2019-05-18T05:07:24.799Z,47.50
2019-05-18T05:09:58.319Z,50.90
2019-05-18T05:12:31.241Z,49.83
2019-05-18T05:15:06.977Z,45.88
2019-05-18T05:17:40.018Z,54.63
2019-05-18T05:20:19.698Z,56.40
2019-05-18T05:22:52.269Z,43.40
2019-05-18T05:25:25.321Z,50.73
2019-05-18T05:27:59.268Z,49.25
2019-05-18T05:30:32.562Z,38.15
2019-05-18T05:33:05.384Z,44.67
2019-05-18T05:35:38.293Z,48.75
2019-05-18T05:38:12.171Z,54.42
2019-05-18T05:40:45.609Z,50.30
2019-05-18T05:43:19.212Z,49.88
2019-05-18T05:45:52.537Z,52.93
2019-05-18T05:48:25.513Z,36.80
2019-05-18T05:50:58.581Z,42.58
2019-05-18T05:53:31.383Z,44.63
2019-05-18T05:56:04.956Z,41.18
2019-05-18T05:58:37.853Z,33.53
2019-05-18T06:01:10.861Z,33.88
2019-05-18T06:03:43.764Z,38.70
2019-05-18T06:06:16.727Z,39.45
2019-05-18T06:08:49.771Z,32.13
2019-05-18T06:11:22.694Z,37.35
2019-05-18T06:13:55.669Z,35.63
2019-05-18T06:16:28.628Z,36.65
2019-05-18T06:19:01.666Z,35.92
2019-05-18T06:21:34.978Z,31.17
2019-05-18T06:24:07.944Z,32.00
2019-05-18T06:26:40.836Z,31.65
2019-05-18T06:29:13.827Z,31.42
2019-05-18T06:31:46.796Z,31.23
2019-05-18T06:34:19.957Z,30.32
2019-05-18T06:36:55.843Z,32.67
2019-05-18T06:39:27.354Z,27.42
2019-05-18T06:42:00.213Z,32.08
2019-05-18T06:44:33.100Z,25.30
2019-05-18T06:47:07.103Z,24.12
2019-05-18T06:49:39.999Z,25.35
2019-05-18T06:52:12.924Z,28.07
2019-05-18T06:54:45.980Z,23.32
2019-05-18T06:57:19.503Z,28.07
2019-05-18T06:59:53.239Z,25.88
2019-05-18T07:02:26.150Z,20.55
2019-05-18T07:04:58.990Z,23.83
2019-05-18T07:07:32.172Z,22.95
2019-05-18T07:10:05.193Z,24.18
2019-05-18T07:12:38.343Z,28.98
2019-05-18T07:15:12.102Z,27.17
2019-05-18T07:17:45.129Z,25.68
2019-05-18T07:20:18.770Z,19.48
2019-05-18T07:22:52.500Z,33.28
2019-05-18T07:25:26.616Z,25.25
2019-05-18T07:27:59.513Z,28.45
2019-05-18T07:30:32.354Z,25.60
2019-05-18T07:33:05.269Z,26.93
2019-05-18T07:35:38.153Z,23.32
2019-05-18T07:38:11.034Z,26.65
2019-05-18T07:40:44.121Z,26.02
2019-05-18T07:43:17.069Z,27.67
2019-05-18T07:45:49.880Z,23.10
2019-05-18T07:48:22.727Z,26.00
2019-05-18T07:50:55.604Z,25.65
2019-05-18T07:53:28.439Z,23.05
2019-05-18T07:56:01.339Z,24.67
2019-05-18T07:58:36.201Z,26.95
2019-05-18T08:01:09.002Z,29.18
2019-05-18T08:03:41.842Z,26.97
2019-05-18T08:06:14.650Z,28.30
2019-05-18T08:08:47.492Z,24.60
2019-05-18T08:11:20.457Z,29.72
2019-05-18T08:13:53.371Z,24.32
2019-05-18T08:16:26.249Z,18.75
2019-05-18T08:18:59.202Z,19.98
2019-05-18T08:21:32.023Z,27.42
2019-05-18T08:24:04.884Z,18.32
2019-05-18T08:26:37.849Z,20.48
2019-05-18T08:29:11.832Z,16.10
2019-05-18T08:31:44.722Z,19.48
2019-05-18T08:34:17.522Z,18.60
2019-05-18T08:36:50.413Z,22.35
2019-05-18T08:39:23.284Z,18.12
2019-05-18T08:41:56.350Z,19.12
2019-05-18T08:44:29.320Z,16.70
2019-05-18T08:47:02.514Z,14.58
2019-05-18T08:49:35.577Z,16.82
2019-05-18T08:52:08.899Z,19.02
2019-05-18T08:54:41.906Z,22.30
2019-05-18T08:57:14.894Z,20.70
2019-05-18T08:59:47.816Z,18.95
2019-05-18T09:02:20.750Z,14.80
2019-05-18T09:04:53.621Z,18.15
2019-05-18T09:07:26.588Z,19.05
2019-05-18T09:09:59.439Z,18.70
2019-05-18T09:12:32.463Z,20.85
2019-05-18T09:15:06.990Z,24.75
2019-05-18T09:17:40.266Z,25.05
2019-05-18T09:20:14.451Z,20.95
2019-05-18T09:22:47.415Z,22.15
2019-05-18T09:25:21.456Z,21.77
2019-05-18T09:27:54.478Z,18.67
2019-05-18T09:30:27.466Z,18.30
2019-05-18T09:33:00.449Z,14.65
2019-05-18T09:35:33.322Z,14.28
2019-05-18T09:38:06.206Z,15.72
2019-05-18T09:40:39.061Z,18.35
2019-05-18T09:43:11.862Z,17.45
2019-05-18T09:45:44.714Z,16.97
2019-05-18T09:48:17.969Z,18.60
2019-05-18T09:50:57.263Z,20.35
2019-05-18T09:53:31.289Z,16.20
2019-05-18T09:56:04.244Z,14.55
2019-05-18T09:58:37.107Z,25.75
2019-05-18T10:01:09.916Z,27.55
2019-05-18T10:03:42.776Z,28.47
2019-05-18T10:06:16.077Z,27.20
2019-05-18T10:08:49.081Z,25.00
2019-05-18T10:11:23.094Z,26.48
2019-05-18T10:13:56.035Z,24.50
2019-05-18T10:16:28.829Z,23.62
2019-05-18T10:19:01.768Z,27.40
2019-05-18T10:21:34.682Z,22.20
2019-05-18T10:24:07.521Z,25.27
2019-05-18T10:26:40.352Z,20.75
2019-05-18T10:29:13.175Z,20.35
2019-05-18T10:31:46.084Z,21.75
2019-05-18T10:34:18.991Z,28.52
2019-05-18T10:36:51.946Z,23.50
2019-05-18T10:39:24.845Z,23.85
2019-05-18T10:41:57.756Z,23.07
2019-05-18T10:44:30.651Z,23.73
2019-05-18T10:47:03.470Z,19.50
2019-05-18T10:49:36.255Z,22.77
2019-05-18T10:52:09.560Z,19.60
2019-05-18T10:54:42.459Z,21.52
2019-05-18T10:57:15.442Z,23.95
2019-05-18T10:59:48.386Z,21.57
2019-05-18T11:02:21.434Z,25.30
2019-05-18T11:04:54.366Z,20.97
2019-05-18T11:07:29.044Z,23.80
2019-05-18T11:10:02.362Z,17.95
2019-05-18T11:12:35.397Z,19.98
2019-05-18T11:15:09.745Z,17.30
2019-05-18T11:17:42.699Z,15.88
2019-05-18T11:20:17.837Z,14.10
2019-05-18T11:22:50.761Z,13.70
2019-05-18T11:25:23.825Z,11.45
2019-05-18T11:27:56.688Z,11.48
2019-05-18T11:30:29.632Z,13.90
2019-05-18T11:33:02.564Z,15.35
2019-05-18T11:35:35.542Z,12.18
2019-05-18T11:38:08.386Z,16.15
2019-05-18T11:40:41.225Z,14.35
2019-05-18T11:43:14.302Z,12.10
2019-05-18T11:45:47.447Z,12.15
2019-05-18T11:48:20.233Z,11.22
2019-05-18T11:50:53.218Z,7.15
2019-05-18T11:53:26.159Z,8.43
2019-05-18T11:55:58.966Z,9.83
2019-05-18T11:58:31.824Z,6.78
2019-05-18T12:01:04.686Z,9.50
2019-05-18T12:03:37.596Z,6.92
2019-05-18T12:06:10.739Z,8.85
2019-05-18T12:08:43.510Z,7.30
2019-05-18T12:11:16.340Z,7.08
2019-05-18T12:13:49.277Z,8.90
2019-05-18T12:16:22.137Z,9.50
2019-05-18T12:18:57.523Z,8.00
2019-05-18T12:21:30.288Z,6.00
2019-05-18T12:24:14.813Z,10.35
2019-05-18T12:26:37.790Z,5.53
2019-05-18T12:29:10.576Z,5.85
2019-05-18T12:31:43.445Z,4.65
2019-05-18T12:34:16.306Z,7.65
2019-05-18T12:36:49.199Z,5.80
2019-05-18T12:39:22.086Z,8.43
2019-05-18T12:41:54.967Z,9.53
2019-05-18T12:44:27.826Z,7.40
2019-05-18T12:47:00.667Z,6.95
2019-05-18T12:49:33.619Z,6.75
2019-05-18T12:52:06.609Z,7.37
2019-05-18T12:54:46.491Z,5.87
2019-05-18T12:57:14.376Z,6.08
2019-05-18T12:59:47.241Z,6.35
2019-05-18T13:02:20.184Z,8.50
2019-05-18T13:04:54.067Z,7.17
2019-05-18T13:07:26.997Z,6.37
2019-05-18T13:09:59.890Z,7.00
2019-05-18T13:12:32.761Z,8.58
2019-05-18T13:15:06.856Z,6.28
2019-05-18T13:17:39.759Z,10.53
2019-05-18T13:20:13.269Z,7.67
2019-05-18T13:22:48.275Z,8.05
2019-05-18T13:25:21.791Z,6.70
2019-05-18T13:27:54.764Z,5.90
2019-05-18T13:30:27.819Z,8.05
2019-05-18T13:33:00.783Z,6.47
2019-05-18T13:35:33.959Z,6.87
2019-05-18T13:38:06.900Z,7.70
2019-05-18T13:40:42.847Z,6.67
2019-05-18T13:43:15.930Z,5.22
2019-05-18T13:45:48.910Z,5.90
2019-05-18T13:48:21.805Z,7.60
2019-05-18T13:50:54.608Z,7.65
2019-05-18T13:53:27.592Z,6.65
2019-05-18T13:56:00.591Z,8.03
2019-05-18T13:58:33.511Z,5.50
2019-05-18T14:01:06.791Z,9.15
2019-05-18T14:03:40.078Z,5.35
2019-05-18T14:06:13.429Z,5.40
2019-05-18T14:08:47.048Z,8.45
2019-05-18T14:11:21.734Z,6.90
2019-05-18T14:13:54.722Z,6.45
2019-05-18T14:16:29.657Z,13.62
2019-05-18T14:19:02.605Z,7.65
2019-05-18T14:21:35.525Z,10.82
2019-05-18T14:24:08.414Z,5.37
2019-05-18T14:26:41.254Z,7.72
2019-05-18T14:29:14.265Z,6.97
2019-05-18T14:31:47.260Z,6.85
2019-05-18T14:34:20.058Z,8.13
2019-05-18T14:36:52.927Z,5.62
2019-05-18T14:39:26.240Z,6.95
2019-05-18T14:41:59.116Z,7.53
2019-05-18T14:44:32.110Z,8.13
2019-05-18T14:47:05.297Z,6.08
2019-05-18T14:49:38.215Z,6.12
2019-05-18T14:52:12.180Z,7.72
2019-05-18T14:54:45.529Z,8.80
2019-05-18T14:57:18.502Z,5.85
2019-05-18T14:59:51.490Z,7.03
2019-05-18T15:02:24.420Z,6.78
2019-05-18T15:04:57.259Z,6.83
2019-05-18T15:07:30.216Z,6.35
2019-05-18T15:10:03.049Z,8.05
2019-05-18T15:12:36.277Z,6.60
2019-05-18T15:15:10.303Z,4.78
2019-05-18T15:17:44.079Z,6.25
2019-05-18T15:20:18.372Z,5.83
2019-05-18T15:22:51.325Z,5.53
2019-05-18T15:25:24.291Z,5.03
2019-05-18T15:27:57.287Z,10.03
2019-05-18T15:30:30.124Z,6.03
2019-05-18T15:33:02.987Z,5.97
2019-05-18T15:35:36.183Z,5.85
2019-05-18T15:38:09.105Z,7.45
2019-05-18T15:40:41.967Z,6.78
2019-05-18T15:43:14.917Z,6.80
2019-05-18T15:45:47.781Z,6.65
2019-05-18T15:48:20.753Z,6.90
2019-05-18T15:50:53.675Z,6.03
2019-05-18T15:53:26.474Z,7.10
2019-05-18T15:56:05.806Z,7.15
2019-05-18T15:58:34.119Z,7.65
2019-05-18T16:01:07.015Z,5.40
2019-05-18T16:03:40.277Z,7.92
2019-05-18T16:06:13.164Z,6.95
2019-05-18T16:08:46.054Z,6.22
2019-05-18T16:11:18.934Z,8.18
2019-05-18T16:13:51.833Z,5.55
2019-05-18T16:16:24.694Z,6.58
2019-05-18T16:18:57.693Z,7.62
2019-05-18T16:21:30.584Z,6.20
2019-05-18T16:24:03.520Z,6.37
2019-05-18T16:26:36.510Z,6.35
2019-05-18T16:29:09.361Z,11.03
2019-05-18T16:31:42.163Z,7.45
2019-05-18T16:34:16.101Z,7.55
2019-05-18T16:36:48.993Z,8.83
2019-05-18T16:39:21.820Z,6.22
2019-05-18T16:41:54.702Z,7.65
2019-05-18T16:44:27.532Z,4.80
2019-05-18T16:47:00.390Z,7.53
2019-05-18T16:49:33.250Z,6.50
2019-05-18T16:52:06.140Z,7.70
2019-05-18T16:54:39.257Z,8.58
2019-05-18T16:57:12.078Z,9.88
2019-05-18T16:59:45.006Z,10.68
2019-05-18T17:02:30.653Z,8.88
2019-05-18T17:04:52.520Z,8.60
2019-05-18T17:07:25.490Z,10.58
2019-05-18T17:09:58.407Z,9.63
2019-05-18T17:12:31.205Z,10.05
2019-05-18T17:15:04.147Z,10.55
2019-05-18T17:17:37.007Z,8.93
2019-05-18T17:20:11.737Z,8.45
2019-05-18T17:22:44.585Z,6.50
2019-05-18T17:25:17.983Z,6.28
2019-05-18T17:27:50.794Z,6.45
2019-05-18T17:30:23.689Z,8.50
2019-05-18T17:32:57.186Z,7.65
2019-05-18T17:35:30.025Z,7.53
2019-05-18T17:38:02.810Z,10.32
2019-05-18T17:40:35.641Z,7.62
2019-05-18T17:43:08.636Z,9.53
2019-05-18T17:45:41.588Z,10.05
2019-05-18T17:48:14.699Z,11.18
2019-05-18T17:50:47.840Z,9.58
2019-05-18T17:53:20.876Z,8.88
2019-05-18T17:55:53.776Z,10.68
2019-05-18T17:58:26.760Z,5.75
2019-05-18T18:00:59.608Z,7.30
2019-05-18T18:03:32.877Z,7.67
2019-05-18T18:06:05.969Z,8.50
2019-05-18T18:08:38.902Z,10.03
2019-05-18T18:11:12.091Z,15.65
2019-05-18T18:13:45.123Z,14.83
2019-05-18T18:16:20.781Z,18.10
2019-05-18T18:18:53.662Z,17.77
2019-05-18T18:21:26.768Z,19.12
2019-05-18T18:23:59.648Z,17.60
2019-05-18T18:26:32.794Z,21.17
2019-05-18T18:29:05.856Z,12.88
2019-05-18T18:31:38.777Z,13.40
2019-05-18T18:34:12.065Z,11.30
2019-05-18T18:36:45.423Z,13.43
2019-05-18T18:39:18.393Z,10.10
2019-05-18T18:41:51.314Z,15.55
2019-05-18T18:44:24.304Z,12.98
2019-05-18T18:46:57.173Z,18.12
2019-05-18T18:49:30.027Z,30.27
2019-05-18T18:52:02.949Z,29.35
2019-05-18T18:54:35.813Z,26.02
2019-05-18T18:57:08.723Z,34.43
2019-05-18T18:59:41.650Z,22.15
2019-05-18T19:02:14.530Z,19.57
2019-05-18T19:04:47.401Z,27.45
2019-05-18T19:07:20.387Z,29.07
2019-05-18T19:09:53.385Z,27.07
2019-05-18T19:12:26.288Z,28.85
2019-05-18T19:14:59.231Z,21.82
2019-05-18T19:17:32.282Z,23.20
2019-05-18T19:20:05.817Z,25.37
2019-05-18T19:22:38.854Z,19.32
2019-05-18T19:25:12.161Z,37.83
2019-05-18T19:27:54.579Z,54.50
2019-05-18T19:30:20.528Z,68.75
2019-05-18T19:32:53.323Z,67.60
2019-05-18T19:35:26.288Z,68.87
2019-05-18T19:37:59.221Z,93.12
2019-05-18T19:40:32.175Z,79.60
2019-05-18T19:43:06.169Z,66.55
2019-05-18T19:45:39.159Z,64.20
2019-05-18T19:48:12.078Z,52.40
2019-05-18T19:50:45.040Z,65.47
2019-05-18T19:53:18.055Z,50.98
2019-05-18T19:55:51.796Z,53.48
2019-05-18T19:58:24.849Z,35.40
2019-05-18T20:00:58.752Z,38.90
2019-05-18T20:03:33.025Z,31.80
2019-05-18T20:06:07.120Z,30.57
2019-05-18T20:08:39.963Z,31.45
2019-05-18T20:11:12.997Z,37.85
2019-05-18T20:13:45.998Z,41.23
2019-05-18T20:16:18.866Z,51.65
2019-05-18T20:18:51.770Z,51.73
2019-05-18T20:21:24.983Z,64.50
2019-05-18T20:23:58.219Z,110.32
2019-05-18T20:26:31.663Z,133.78
2019-05-18T20:29:05.601Z,136.45
2019-05-18T20:31:38.970Z,152.53
2019-05-18T20:34:11.854Z,102.55
2019-05-18T20:36:44.830Z,73.50
2019-05-18T20:39:17.947Z,56.92
2019-05-18T20:41:50.921Z,41.33
2019-05-18T20:44:23.984Z,43.58
2019-05-18T20:46:57.073Z,39.88
2019-05-18T20:49:29.966Z,40.83
2019-05-18T20:52:02.963Z,52.27
2019-05-18T20:54:35.998Z,42.23
2019-05-18T20:57:08.959Z,44.63
2019-05-18T20:59:41.869Z,42.70
2019-05-18T21:02:14.729Z,47.90
2019-05-18T21:04:47.775Z,44.93
2019-05-18T21:07:21.381Z,48.60
2019-05-18T21:09:54.242Z,56.58
2019-05-18T21:12:27.093Z,54.03
2019-05-18T21:15:00.072Z,63.17
2019-05-18T21:17:33.330Z,109.00
2019-05-18T21:20:06.981Z,101.53
2019-05-18T21:22:39.965Z,109.83
2019-05-18T21:25:13.370Z,82.12
2019-05-18T21:27:46.328Z,128.80
2019-05-18T21:30:20.304Z,133.35
2019-05-18T21:32:53.388Z,84.72
2019-05-18T21:35:26.453Z,56.63
2019-05-18T21:38:00.818Z,53.10
2019-05-18T21:40:33.754Z,45.65
2019-05-18T21:43:06.617Z,45.25
2019-05-18T21:45:39.610Z,43.38
2019-05-18T21:48:12.579Z,36.95
2019-05-18T21:50:45.520Z,36.48
2019-05-18T21:53:18.599Z,34.70
2019-05-18T21:55:51.653Z,44.35
2019-05-18T21:58:24.523Z,45.85
2019-05-18T22:00:57.451Z,43.78
2019-05-18T22:03:30.469Z,52.85
2019-05-18T22:06:03.609Z,43.73
2019-05-18T22:08:36.593Z,41.60
2019-05-18T22:11:09.487Z,54.20
2019-05-18T22:13:42.475Z,57.03
2019-05-18T22:16:15.391Z,50.55
2019-05-18T22:18:48.447Z,42.65
2019-05-18T22:21:21.343Z,51.20
2019-05-18T22:23:54.292Z,46.15
2019-05-18T22:26:27.175Z,46.48
2019-05-18T22:29:00.080Z,47.50
2019-05-18T22:31:33.233Z,46.73
2019-05-18T22:34:09.074Z,43.52
2019-05-18T22:36:41.987Z,44.10
2019-05-18T22:39:14.915Z,48.98
2019-05-18T22:41:47.918Z,48.23
2019-05-18T22:44:20.999Z,42.53
2019-05-18T22:46:54.031Z,50.73
2019-05-18T22:49:27.278Z,54.63
2019-05-18T22:52:00.107Z,47.00
2019-05-18T22:54:33.168Z,41.02
2019-05-18T22:57:06.382Z,46.92
2019-05-18T22:59:39.247Z,35.58
2019-05-18T23:02:12.619Z,39.13
2019-05-18T23:04:45.565Z,37.40
2019-05-18T23:07:18.498Z,37.67
2019-05-18T23:09:51.725Z,38.88
2019-05-18T23:12:24.818Z,38.30
2019-05-18T23:14:57.865Z,39.75
2019-05-18T23:17:30.791Z,37.17
2019-05-18T23:20:03.861Z,39.60
2019-05-18T23:22:36.976Z,51.25
2019-05-18T23:25:10.335Z,48.42
2019-05-18T23:27:43.326Z,51.13
2019-05-18T23:30:16.448Z,37.42
2019-05-18T23:32:50.665Z,39.38
2019-05-18T23:35:23.799Z,41.45
2019-05-18T23:37:56.910Z,45.30
2019-05-18T23:40:29.764Z,40.63
2019-05-18T23:43:02.680Z,51.02
2019-05-18T23:45:35.895Z,47.10
2019-05-18T23:48:08.884Z,52.30
2019-05-18T23:50:41.797Z,47.03
2019-05-18T23:53:14.596Z,54.18
2019-05-18T23:55:47.505Z,55.08
2019-05-18T23:58:20.370Z,48.05
